sensor_id;sensor_type;location;lat;lon;timestamp;temperature;humidity
20479;DHT22;10398;52.490;13.434;2023-02-08T00:01:44;1.30;99.90
20479;DHT22;10398;52.490;13.434;2023-02-08T00:04:09;1.30;99.90
20479;DHT22;10398;52.490;13.434;2023-02-08T00:06:35;1.20;99.90
20479;DHT22;10398;52.490;13.434;2023-02-08T00:09:01;1.20;99.90
20479;DHT22;10398;52.490;13.434;2023-02-08T00:11:34;1.30;99.90
20479;DHT22;10398;52.490;13.434;2023-02-08T00:14:00;1.20;99.90
20479;DHT22;10398;52.490;13.434;2023-02-08T00:16:28;1.30;99.90
20479;DHT22;10398;52.490;13.434;2023-02-08T00:18:54;1.40;99.90
20479;DHT22;10398;52.490;13.434;2023-02-08T00:21:23;1.30;99.90
20479;DHT22;10398;52.490;13.434;2023-02-08T00:23:49;1.30;99.90
20479;DHT22;10398;52.490;13.434;2023-02-08T00:26:15;1.20;99.90
20479;DHT22;10398;52.490;13.434;2023-02-08T00:28:41;1.20;99.90
20479;DHT22;10398;52.490;13.434;2023-02-08T00:31:07;1.20;99.90
20479;DHT22;10398;52.490;13.434;2023-02-08T00:33:32;1.10;99.90
20479;DHT22;10398;52.490;13.434;2023-02-08T00:36:03;1.10;99.90
20479;DHT22;10398;52.490;13.434;2023-02-08T00:38:29;1.10;99.90
20479;DHT22;10398;52.490;13.434;2023-02-08T00:40:55;1.10;99.90
20479;DHT22;10398;52.490;13.434;2023-02-08T00:43:21;1.10;99.90
20479;DHT22;10398;52.490;13.434;2023-02-08T00:45:46;1.10;99.90
20479;DHT22;10398;52.490;13.434;2023-02-08T00:48:12;1.00;99.90
20479;DHT22;10398;52.490;13.434;2023-02-08T00:50:40;1.00;99.90
20479;DHT22;10398;52.490;13.434;2023-02-08T00:53:06;1.00;99.90
20479;DHT22;10398;52.490;13.434;2023-02-08T00:55:31;0.90;99.90
20479;DHT22;10398;52.490;13.434;2023-02-08T00:57:57;1.00;99.90
20479;DHT22;10398;52.490;13.434;2023-02-08T01:00:23;1.00;99.90
20479;DHT22;10398;52.490;13.434;2023-02-08T01:02:48;1.00;99.90
20479;DHT22;10398;52.490;13.434;2023-02-08T01:05:14;1.00;99.90
20479;DHT22;10398;52.490;13.434;2023-02-08T01:07:39;1.00;99.90
20479;DHT22;10398;52.490;13.434;2023-02-08T01:10:09;1.00;99.90
20479;DHT22;10398;52.490;13.434;2023-02-08T01:12:37;1.00;99.90
20479;DHT22;10398;52.490;13.434;2023-02-08T01:15:03;1.00;99.90
20479;DHT22;10398;52.490;13.434;2023-02-08T01:17:29;1.00;99.90
20479;DHT22;10398;52.490;13.434;2023-02-08T01:19:55;1.00;99.90
20479;DHT22;10398;52.490;13.434;2023-02-08T01:22:21;1.00;99.90
20479;DHT22;10398;52.490;13.434;2023-02-08T01:24:47;0.90;99.90
20479;DHT22;10398;52.490;13.434;2023-02-08T01:27:12;0.90;99.90
20479;DHT22;10398;52.490;13.434;2023-02-08T01:29:38;0.80;99.90
20479;DHT22;10398;52.490;13.434;2023-02-08T01:32:03;0.80;99.90
20479;DHT22;10398;52.490;13.434;2023-02-08T01:34:29;0.80;99.90
20479;DHT22;10398;52.490;13.434;2023-02-08T01:36:55;0.70;99.90
20479;DHT22;10398;52.490;13.434;2023-02-08T01:39:20;0.70;99.90
20479;DHT22;10398;52.490;13.434;2023-02-08T01:41:46;0.70;99.90
20479;DHT22;10398;52.490;13.434;2023-02-08T01:46:47;0.60;99.90
20479;DHT22;10398;52.490;13.434;2023-02-08T01:49:21;0.70;99.90
20479;DHT22;10398;52.490;13.434;2023-02-08T01:54:52;0.60;99.90
20479;DHT22;10398;52.490;13.434;2023-02-08T01:57:21;0.60;99.90
20479;DHT22;10398;52.490;13.434;2023-02-08T01:59:56;0.60;99.90
20479;DHT22;10398;52.490;13.434;2023-02-08T02:02:24;0.50;99.90
20479;DHT22;10398;52.490;13.434;2023-02-08T02:04:51;0.40;99.90
20479;DHT22;10398;52.490;13.434;2023-02-08T02:07:18;0.40;99.90
20479;DHT22;10398;52.490;13.434;2023-02-08T02:09:51;0.40;99.90
20479;DHT22;10398;52.490;13.434;2023-02-08T02:12:18;0.40;99.90
20479;DHT22;10398;52.490;13.434;2023-02-08T02:14:44;0.40;99.90
20479;DHT22;10398;52.490;13.434;2023-02-08T02:17:12;0.50;99.90
20479;DHT22;10398;52.490;13.434;2023-02-08T02:33:44;0.40;99.90
20479;DHT22;10398;52.490;13.434;2023-02-08T02:53:04;0.40;99.90
20479;DHT22;10398;52.490;13.434;2023-02-08T02:55:33;0.40;99.90
20479;DHT22;10398;52.490;13.434;2023-02-08T02:58:01;0.20;99.90
20479;DHT22;10398;52.490;13.434;2023-02-08T03:00:29;-0.10;99.90
20479;DHT22;10398;52.490;13.434;2023-02-08T03:02:56;-0.20;99.90
20479;DHT22;10398;52.490;13.434;2023-02-08T03:05:23;-0.20;99.90
20479;DHT22;10398;52.490;13.434;2023-02-08T03:08:07;-0.10;99.90
20479;DHT22;10398;52.490;13.434;2023-02-08T03:11:07;-0.20;99.90
20479;DHT22;10398;52.490;13.434;2023-02-08T03:19:48;0.00;99.90
20479;DHT22;10398;52.490;13.434;2023-02-08T03:25:20;0.10;99.90
20479;DHT22;10398;52.490;13.434;2023-02-08T03:27:49;0.10;99.90
20479;DHT22;10398;52.490;13.434;2023-02-08T03:30:52;0.00;99.90
20479;DHT22;10398;52.490;13.434;2023-02-08T03:33:29;-0.10;99.90
20479;DHT22;10398;52.490;13.434;2023-02-08T03:36:05;-0.10;99.90
20479;DHT22;10398;52.490;13.434;2023-02-08T03:38:37;-0.10;99.90
20479;DHT22;10398;52.490;13.434;2023-02-08T03:41:06;-0.10;99.90
20479;DHT22;10398;52.490;13.434;2023-02-08T03:43:36;0.10;99.90
20479;DHT22;10398;52.490;13.434;2023-02-08T03:48:34;0.20;99.90
20479;DHT22;10398;52.490;13.434;2023-02-08T03:51:02;0.10;99.90
20479;DHT22;10398;52.490;13.434;2023-02-08T03:53:30;0.10;99.90
20479;DHT22;10398;52.490;13.434;2023-02-08T03:56:08;0.00;99.90
20479;DHT22;10398;52.490;13.434;2023-02-08T03:58:42;-0.10;99.90
20479;DHT22;10398;52.490;13.434;2023-02-08T04:01:19;-0.20;99.90
20479;DHT22;10398;52.490;13.434;2023-02-08T04:03:47;-0.20;99.90
20479;DHT22;10398;52.490;13.434;2023-02-08T04:06:15;-0.10;99.90
20479;DHT22;10398;52.490;13.434;2023-02-08T04:08:41;-0.10;99.90
20479;DHT22;10398;52.490;13.434;2023-02-08T04:11:07;-0.20;99.90
20479;DHT22;10398;52.490;13.434;2023-02-08T04:13:32;-0.20;99.90
20479;DHT22;10398;52.490;13.434;2023-02-08T04:15:58;-0.10;99.90
20479;DHT22;10398;52.490;13.434;2023-02-08T04:18:23;0.00;99.90
20479;DHT22;10398;52.490;13.434;2023-02-08T04:20:49;-0.20;99.90
20479;DHT22;10398;52.490;13.434;2023-02-08T04:23:15;-0.10;99.90
20479;DHT22;10398;52.490;13.434;2023-02-08T04:25:40;-0.10;99.90
20479;DHT22;10398;52.490;13.434;2023-02-08T04:28:06;-0.10;99.90
20479;DHT22;10398;52.490;13.434;2023-02-08T04:30:31;-0.20;99.90
20479;DHT22;10398;52.490;13.434;2023-02-08T04:32:57;-0.20;99.90
20479;DHT22;10398;52.490;13.434;2023-02-08T04:35:24;-0.20;99.90
20479;DHT22;10398;52.490;13.434;2023-02-08T04:37:50;-0.30;99.90
20479;DHT22;10398;52.490;13.434;2023-02-08T04:40:16;-0.30;99.90
20479;DHT22;10398;52.490;13.434;2023-02-08T04:42:41;-0.30;99.90
20479;DHT22;10398;52.490;13.434;2023-02-08T04:45:08;-0.30;99.90
20479;DHT22;10398;52.490;13.434;2023-02-08T04:47:33;-0.20;99.90
20479;DHT22;10398;52.490;13.434;2023-02-08T04:49:59;-0.20;99.90
20479;DHT22;10398;52.490;13.434;2023-02-08T04:52:25;-0.20;99.90
20479;DHT22;10398;52.490;13.434;2023-02-08T04:54:50;-0.20;99.90
20479;DHT22;10398;52.490;13.434;2023-02-08T04:57:16;-0.30;99.90
20479;DHT22;10398;52.490;13.434;2023-02-08T04:59:41;-0.40;99.90
20479;DHT22;10398;52.490;13.434;2023-02-08T05:02:07;-0.40;99.90
20479;DHT22;10398;52.490;13.434;2023-02-08T05:04:33;-0.30;99.90
20479;DHT22;10398;52.490;13.434;2023-02-08T05:06:59;-0.40;99.90
20479;DHT22;10398;52.490;13.434;2023-02-08T05:09:24;-0.50;99.90
20479;DHT22;10398;52.490;13.434;2023-02-08T05:11:50;-0.40;99.90
20479;DHT22;10398;52.490;13.434;2023-02-08T05:14:15;-0.50;99.90
20479;DHT22;10398;52.490;13.434;2023-02-08T05:16:41;-0.40;99.90
20479;DHT22;10398;52.490;13.434;2023-02-08T05:19:08;-0.70;99.90
20479;DHT22;10398;52.490;13.434;2023-02-08T05:21:33;-0.70;99.90
20479;DHT22;10398;52.490;13.434;2023-02-08T05:23:59;-0.60;99.90
20479;DHT22;10398;52.490;13.434;2023-02-08T05:26:24;-0.60;99.90
20479;DHT22;10398;52.490;13.434;2023-02-08T05:28:50;-0.60;99.90
20479;DHT22;10398;52.490;13.434;2023-02-08T05:31:21;-0.70;99.90
20479;DHT22;10398;52.490;13.434;2023-02-08T05:33:51;-0.70;99.90
20479;DHT22;10398;52.490;13.434;2023-02-08T05:36:18;-0.70;99.90
20479;DHT22;10398;52.490;13.434;2023-02-08T05:38:44;-0.80;99.90
20479;DHT22;10398;52.490;13.434;2023-02-08T05:41:10;-0.90;99.90
20479;DHT22;10398;52.490;13.434;2023-02-08T05:43:36;-1.00;99.90
20479;DHT22;10398;52.490;13.434;2023-02-08T05:46:01;-1.00;99.90
20479;DHT22;10398;52.490;13.434;2023-02-08T05:48:28;-1.00;99.90
20479;DHT22;10398;52.490;13.434;2023-02-08T05:50:54;-1.20;99.90
20479;DHT22;10398;52.490;13.434;2023-02-08T05:53:19;-1.10;99.90
20479;DHT22;10398;52.490;13.434;2023-02-08T05:55:46;-1.00;99.90
20479;DHT22;10398;52.490;13.434;2023-02-08T05:58:13;-1.00;99.90
20479;DHT22;10398;52.490;13.434;2023-02-08T06:00:39;-0.90;99.90
20479;DHT22;10398;52.490;13.434;2023-02-08T06:03:05;-1.00;99.90
20479;DHT22;10398;52.490;13.434;2023-02-08T06:05:31;-1.00;99.90
20479;DHT22;10398;52.490;13.434;2023-02-08T06:07:56;-0.90;99.90
20479;DHT22;10398;52.490;13.434;2023-02-08T06:10:22;-0.90;99.90
20479;DHT22;10398;52.490;13.434;2023-02-08T06:12:48;-1.00;99.90
20479;DHT22;10398;52.490;13.434;2023-02-08T06:15:13;-1.10;99.90
20479;DHT22;10398;52.490;13.434;2023-02-08T06:17:39;-1.10;99.90
20479;DHT22;10398;52.490;13.434;2023-02-08T06:20:05;-1.10;99.90
20479;DHT22;10398;52.490;13.434;2023-02-08T06:22:33;-1.10;99.90
20479;DHT22;10398;52.490;13.434;2023-02-08T06:24:58;-1.20;99.90
20479;DHT22;10398;52.490;13.434;2023-02-08T06:27:24;-1.20;99.90
20479;DHT22;10398;52.490;13.434;2023-02-08T06:29:50;-1.30;99.90
20479;DHT22;10398;52.490;13.434;2023-02-08T06:32:15;-1.30;99.90
20479;DHT22;10398;52.490;13.434;2023-02-08T06:34:41;-1.00;99.90
20479;DHT22;10398;52.490;13.434;2023-02-08T06:37:07;-1.00;99.90
20479;DHT22;10398;52.490;13.434;2023-02-08T06:39:33;-1.00;99.90
20479;DHT22;10398;52.490;13.434;2023-02-08T06:41:58;-0.90;99.90
20479;DHT22;10398;52.490;13.434;2023-02-08T06:44:24;-1.00;99.90
20479;DHT22;10398;52.490;13.434;2023-02-08T06:46:50;-0.90;99.90
20479;DHT22;10398;52.490;13.434;2023-02-08T06:49:15;-0.90;99.90
20479;DHT22;10398;52.490;13.434;2023-02-08T06:51:41;-0.90;99.90
20479;DHT22;10398;52.490;13.434;2023-02-08T06:54:07;-0.90;99.90
20479;DHT22;10398;52.490;13.434;2023-02-08T06:56:33;-1.00;99.90
20479;DHT22;10398;52.490;13.434;2023-02-08T06:58:58;-1.10;99.90
20479;DHT22;10398;52.490;13.434;2023-02-08T07:01:24;-1.20;99.90
20479;DHT22;10398;52.490;13.434;2023-02-08T07:03:50;-1.20;99.90
20479;DHT22;10398;52.490;13.434;2023-02-08T07:06:17;-1.20;99.90
20479;DHT22;10398;52.490;13.434;2023-02-08T07:08:44;-1.10;99.90
20479;DHT22;10398;52.490;13.434;2023-02-08T07:11:12;-0.90;99.90
20479;DHT22;10398;52.490;13.434;2023-02-08T07:13:38;-0.90;99.90
20479;DHT22;10398;52.490;13.434;2023-02-08T07:16:06;-0.90;99.90
20479;DHT22;10398;52.490;13.434;2023-02-08T07:18:32;-1.00;99.90
20479;DHT22;10398;52.490;13.434;2023-02-08T07:20:58;-1.00;99.90
20479;DHT22;10398;52.490;13.434;2023-02-08T07:23:24;-0.90;99.90
20479;DHT22;10398;52.490;13.434;2023-02-08T07:26:00;-0.90;99.90
20479;DHT22;10398;52.490;13.434;2023-02-08T07:28:26;-1.10;99.90
20479;DHT22;10398;52.490;13.434;2023-02-08T07:30:53;-1.30;99.90
20479;DHT22;10398;52.490;13.434;2023-02-08T07:33:19;-1.20;99.90
20479;DHT22;10398;52.490;13.434;2023-02-08T07:35:45;-1.20;99.90
20479;DHT22;10398;52.490;13.434;2023-02-08T07:38:10;-1.30;99.90
20479;DHT22;10398;52.490;13.434;2023-02-08T07:40:36;-1.40;99.90
20479;DHT22;10398;52.490;13.434;2023-02-08T07:43:01;-1.40;99.90
20479;DHT22;10398;52.490;13.434;2023-02-08T07:45:27;-1.50;99.90
20479;DHT22;10398;52.490;13.434;2023-02-08T07:47:53;-1.30;99.90
20479;DHT22;10398;52.490;13.434;2023-02-08T07:50:18;-1.30;99.90
20479;DHT22;10398;52.490;13.434;2023-02-08T07:52:44;-1.30;99.90
20479;DHT22;10398;52.490;13.434;2023-02-08T07:55:12;-1.30;99.90
20479;DHT22;10398;52.490;13.434;2023-02-08T07:57:45;-1.20;99.90
20479;DHT22;10398;52.490;13.434;2023-02-08T08:00:13;-1.10;99.90
20479;DHT22;10398;52.490;13.434;2023-02-08T08:02:39;-0.80;99.90
20479;DHT22;10398;52.490;13.434;2023-02-08T08:05:05;-0.80;99.90
20479;DHT22;10398;52.490;13.434;2023-02-08T08:07:32;-0.60;99.90
20479;DHT22;10398;52.490;13.434;2023-02-08T08:09:59;-0.40;99.90
20479;DHT22;10398;52.490;13.434;2023-02-08T08:12:24;-0.10;99.90
20479;DHT22;10398;52.490;13.434;2023-02-08T08:14:50;0.10;99.90
20479;DHT22;10398;52.490;13.434;2023-02-08T08:17:16;0.20;99.90
20479;DHT22;10398;52.490;13.434;2023-02-08T08:19:42;0.40;99.90
20479;DHT22;10398;52.490;13.434;2023-02-08T08:22:08;0.50;99.90
20479;DHT22;10398;52.490;13.434;2023-02-08T08:24:34;0.60;99.90
20479;DHT22;10398;52.490;13.434;2023-02-08T08:27:01;0.70;99.90
20479;DHT22;10398;52.490;13.434;2023-02-08T08:29:27;0.90;99.90
20479;DHT22;10398;52.490;13.434;2023-02-08T08:31:52;1.10;99.90
20479;DHT22;10398;52.490;13.434;2023-02-08T08:34:18;1.20;99.90
20479;DHT22;10398;52.490;13.434;2023-02-08T08:36:43;1.30;99.90
20479;DHT22;10398;52.490;13.434;2023-02-08T08:39:09;1.50;99.90
20479;DHT22;10398;52.490;13.434;2023-02-08T08:41:35;1.50;99.90
20479;DHT22;10398;52.490;13.434;2023-02-08T08:44:02;1.70;99.90
20479;DHT22;10398;52.490;13.434;2023-02-08T08:46:28;1.60;99.90
20479;DHT22;10398;52.490;13.434;2023-02-08T08:48:53;1.70;99.90
20479;DHT22;10398;52.490;13.434;2023-02-08T08:51:19;1.70;99.90
20479;DHT22;10398;52.490;13.434;2023-02-08T08:53:45;1.70;99.90
20479;DHT22;10398;52.490;13.434;2023-02-08T08:56:11;1.30;99.90
20479;DHT22;10398;52.490;13.434;2023-02-08T08:58:36;1.20;99.90
20479;DHT22;10398;52.490;13.434;2023-02-08T09:01:02;1.20;99.90
20479;DHT22;10398;52.490;13.434;2023-02-08T09:03:28;1.20;99.90
20479;DHT22;10398;52.490;13.434;2023-02-08T09:05:54;1.20;99.90
20479;DHT22;10398;52.490;13.434;2023-02-08T09:08:19;1.20;99.90
20479;DHT22;10398;52.490;13.434;2023-02-08T09:10:45;1.30;99.90
20479;DHT22;10398;52.490;13.434;2023-02-08T09:13:11;1.30;99.90
20479;DHT22;10398;52.490;13.434;2023-02-08T09:15:44;1.30;99.90
20479;DHT22;10398;52.490;13.434;2023-02-08T09:18:10;1.20;99.90
20479;DHT22;10398;52.490;13.434;2023-02-08T09:20:39;1.30;99.90
20479;DHT22;10398;52.490;13.434;2023-02-08T09:23:04;1.30;99.90
20479;DHT22;10398;52.490;13.434;2023-02-08T09:25:30;1.30;99.90
20479;DHT22;10398;52.490;13.434;2023-02-08T09:27:57;1.50;99.90
20479;DHT22;10398;52.490;13.434;2023-02-08T09:30:23;1.60;99.90
20479;DHT22;10398;52.490;13.434;2023-02-08T09:32:49;2.00;99.90
20479;DHT22;10398;52.490;13.434;2023-02-08T09:35:14;2.30;99.90
20479;DHT22;10398;52.490;13.434;2023-02-08T09:37:40;2.50;99.90
20479;DHT22;10398;52.490;13.434;2023-02-08T09:40:06;2.50;99.90
20479;DHT22;10398;52.490;13.434;2023-02-08T09:42:41;2.80;99.90
20479;DHT22;10398;52.490;13.434;2023-02-08T09:47:49;3.30;99.90
20479;DHT22;10398;52.490;13.434;2023-02-08T09:50:26;3.50;99.90
20479;DHT22;10398;52.490;13.434;2023-02-08T09:53:16;3.60;99.90
20479;DHT22;10398;52.490;13.434;2023-02-08T09:55:52;3.70;99.90
20479;DHT22;10398;52.490;13.434;2023-02-08T09:58:36;4.10;99.90
20479;DHT22;10398;52.490;13.434;2023-02-08T10:01:04;4.40;99.90
20479;DHT22;10398;52.490;13.434;2023-02-08T10:03:40;4.70;99.90
20479;DHT22;10398;52.490;13.434;2023-02-08T10:06:12;5.10;99.90
20479;DHT22;10398;52.490;13.434;2023-02-08T10:08:39;5.20;99.90
20479;DHT22;10398;52.490;13.434;2023-02-08T10:19:47;5.60;99.90
20479;DHT22;10398;52.490;13.434;2023-02-08T10:22:43;5.40;99.90
20479;DHT22;10398;52.490;13.434;2023-02-08T10:25:38;5.40;99.90
20479;DHT22;10398;52.490;13.434;2023-02-08T10:33:26;5.90;99.90
20479;DHT22;10398;52.490;13.434;2023-02-08T10:35:56;6.30;99.90
20479;DHT22;10398;52.490;13.434;2023-02-08T10:38:28;6.30;99.90
20479;DHT22;10398;52.490;13.434;2023-02-08T10:41:03;6.40;99.90
20479;DHT22;10398;52.490;13.434;2023-02-08T10:51:18;6.90;99.90
20479;DHT22;10398;52.490;13.434;2023-02-08T10:53:45;6.40;99.90
20479;DHT22;10398;52.490;13.434;2023-02-08T10:58:52;6.80;99.90
20479;DHT22;10398;52.490;13.434;2023-02-08T11:01:18;6.60;99.90
20479;DHT22;10398;52.490;13.434;2023-02-08T11:04:04;6.60;99.90
20479;DHT22;10398;52.490;13.434;2023-02-08T11:06:30;7.00;99.80
20479;DHT22;10398;52.490;13.434;2023-02-08T11:08:56;7.00;99.10
20479;DHT22;10398;52.490;13.434;2023-02-08T11:11:24;7.30;99.00
20479;DHT22;10398;52.490;13.434;2023-02-08T11:13:51;7.00;98.50
20479;DHT22;10398;52.490;13.434;2023-02-08T11:16:22;7.10;98.80
20479;DHT22;10398;52.490;13.434;2023-02-08T11:18:53;7.20;98.70
20479;DHT22;10398;52.490;13.434;2023-02-08T11:21:34;7.10;98.00
20479;DHT22;10398;52.490;13.434;2023-02-08T11:26:52;6.80;98.00
20479;DHT22;10398;52.490;13.434;2023-02-08T11:29:26;6.30;97.90
20479;DHT22;10398;52.490;13.434;2023-02-08T11:34:29;6.40;98.40
20479;DHT22;10398;52.490;13.434;2023-02-08T11:36:59;6.60;98.40
20479;DHT22;10398;52.490;13.434;2023-02-08T11:39:39;6.00;98.10
20479;DHT22;10398;52.490;13.434;2023-02-08T11:42:06;5.70;98.90
20479;DHT22;10398;52.490;13.434;2023-02-08T11:44:40;5.80;99.50
20479;DHT22;10398;52.490;13.434;2023-02-08T11:47:09;5.70;98.90
20479;DHT22;10398;52.490;13.434;2023-02-08T11:49:41;5.50;99.20
20479;DHT22;10398;52.490;13.434;2023-02-08T11:52:26;5.90;99.60
20479;DHT22;10398;52.490;13.434;2023-02-08T11:54:54;5.80;98.70
20479;DHT22;10398;52.490;13.434;2023-02-08T11:57:35;5.80;98.50
20479;DHT22;10398;52.490;13.434;2023-02-08T12:00:19;6.00;98.70
20479;DHT22;10398;52.490;13.434;2023-02-08T12:02:45;5.80;97.90
20479;DHT22;10398;52.490;13.434;2023-02-08T12:05:15;5.80;98.40
20479;DHT22;10398;52.490;13.434;2023-02-08T12:25:21;6.90;97.60
20479;DHT22;10398;52.490;13.434;2023-02-08T12:31:07;7.20;96.80
20479;DHT22;10398;52.490;13.434;2023-02-08T12:33:49;7.00;96.90
20479;DHT22;10398;52.490;13.434;2023-02-08T12:36:40;7.20;96.60
20479;DHT22;10398;52.490;13.434;2023-02-08T12:39:36;7.70;96.40
20479;DHT22;10398;52.490;13.434;2023-02-08T12:42:35;7.60;95.80
20479;DHT22;10398;52.490;13.434;2023-02-08T12:47:43;7.60;95.80
20479;DHT22;10398;52.490;13.434;2023-02-08T12:52:55;7.50;95.60
20479;DHT22;10398;52.490;13.434;2023-02-08T12:55:34;7.40;95.00
20479;DHT22;10398;52.490;13.434;2023-02-08T12:58:31;7.30;95.30
20479;DHT22;10398;52.490;13.434;2023-02-08T13:01:14;7.60;95.40
20479;DHT22;10398;52.490;13.434;2023-02-08T13:03:50;7.50;94.60
20479;DHT22;10398;52.490;13.434;2023-02-08T13:06:24;7.50;94.50
20479;DHT22;10398;52.490;13.434;2023-02-08T13:08:56;7.70;94.70
20479;DHT22;10398;52.490;13.434;2023-02-08T13:11:32;8.30;94.40
20479;DHT22;10398;52.490;13.434;2023-02-08T13:14:24;8.20;93.60
20479;DHT22;10398;52.490;13.434;2023-02-08T13:16:55;8.20;93.80
20479;DHT22;10398;52.490;13.434;2023-02-08T13:20:12;8.60;93.30
20479;DHT22;10398;52.490;13.434;2023-02-08T13:22:15;8.50;93.20
20479;DHT22;10398;52.490;13.434;2023-02-08T13:24:43;8.40;93.00
20479;DHT22;10398;52.490;13.434;2023-02-08T13:27:20;8.30;93.20
20479;DHT22;10398;52.490;13.434;2023-02-08T13:29:48;8.40;93.20
20479;DHT22;10398;52.490;13.434;2023-02-08T13:32:26;8.00;92.90
20479;DHT22;10398;52.490;13.434;2023-02-08T13:35:01;7.80;93.00
20479;DHT22;10398;52.490;13.434;2023-02-08T13:37:32;7.60;93.10
20479;DHT22;10398;52.490;13.434;2023-02-08T13:42:38;6.90;93.50
20479;DHT22;10398;52.490;13.434;2023-02-08T13:45:06;6.80;94.20
20479;DHT22;10398;52.490;13.434;2023-02-08T13:47:46;6.70;94.30
20479;DHT22;10398;52.490;13.434;2023-02-08T13:50:36;6.70;94.40
20479;DHT22;10398;52.490;13.434;2023-02-08T13:53:04;6.50;94.40
20479;DHT22;10398;52.490;13.434;2023-02-08T14:03:30;5.70;95.70
20479;DHT22;10398;52.490;13.434;2023-02-08T14:06:16;5.60;95.90
20479;DHT22;10398;52.490;13.434;2023-02-08T14:08:55;5.50;96.20
20479;DHT22;10398;52.490;13.434;2023-02-08T14:11:47;5.50;96.40
20479;DHT22;10398;52.490;13.434;2023-02-08T14:14:22;5.20;96.60
20479;DHT22;10398;52.490;13.434;2023-02-08T14:17:17;5.10;96.70
20479;DHT22;10398;52.490;13.434;2023-02-08T14:19:45;5.00;96.80
20479;DHT22;10398;52.490;13.434;2023-02-08T14:22:20;4.70;96.90
20479;DHT22;10398;52.490;13.434;2023-02-08T14:24:58;4.70;97.20
20479;DHT22;10398;52.490;13.434;2023-02-08T14:27:53;4.80;97.30
20479;DHT22;10398;52.490;13.434;2023-02-08T14:30:21;4.70;97.10
20479;DHT22;10398;52.490;13.434;2023-02-08T14:33:17;4.70;97.20
20479;DHT22;10398;52.490;13.434;2023-02-08T14:35:57;4.60;97.30
20479;DHT22;10398;52.490;13.434;2023-02-08T14:40:50;4.60;97.60
20479;DHT22;10398;52.490;13.434;2023-02-08T14:45:50;4.50;98.00
20479;DHT22;10398;52.490;13.434;2023-02-08T14:48:18;4.50;98.00
20479;DHT22;10398;52.490;13.434;2023-02-08T14:53:28;4.40;98.10
20479;DHT22;10398;52.490;13.434;2023-02-08T14:56:06;4.40;98.40
20479;DHT22;10398;52.490;13.434;2023-02-08T14:58:41;4.40;98.50
20479;DHT22;10398;52.490;13.434;2023-02-08T15:01:29;4.50;98.60
20479;DHT22;10398;52.490;13.434;2023-02-08T15:03:59;4.50;98.40
20479;DHT22;10398;52.490;13.434;2023-02-08T15:09:24;4.40;98.50
20479;DHT22;10398;52.490;13.434;2023-02-08T15:12:06;4.30;98.80
20479;DHT22;10398;52.490;13.434;2023-02-08T15:14:35;4.20;98.90
20479;DHT22;10398;52.490;13.434;2023-02-08T15:17:02;4.30;99.10
20479;DHT22;10398;52.490;13.434;2023-02-08T15:19:36;4.10;98.90
20479;DHT22;10398;52.490;13.434;2023-02-08T15:24:58;4.50;99.90
20479;DHT22;10398;52.490;13.434;2023-02-08T15:27:28;4.40;99.90
20479;DHT22;10398;52.490;13.434;2023-02-08T15:29:54;4.20;99.60
20479;DHT22;10398;52.490;13.434;2023-02-08T15:32:22;4.10;99.70
20479;DHT22;10398;52.490;13.434;2023-02-08T15:35:02;3.90;99.70
20479;DHT22;10398;52.490;13.434;2023-02-08T15:37:31;3.80;99.80
20479;DHT22;10398;52.490;13.434;2023-02-08T15:39:59;3.80;99.80
20479;DHT22;10398;52.490;13.434;2023-02-08T15:42:27;3.90;99.90
20479;DHT22;10398;52.490;13.434;2023-02-08T15:44:54;3.90;99.70
20479;DHT22;10398;52.490;13.434;2023-02-08T15:47:31;3.80;99.70
20479;DHT22;10398;52.490;13.434;2023-02-08T15:49:58;3.60;99.90
20479;DHT22;10398;52.490;13.434;2023-02-08T15:52:30;3.60;99.90
20479;DHT22;10398;52.490;13.434;2023-02-08T15:54:57;3.50;99.90
20479;DHT22;10398;52.490;13.434;2023-02-08T15:57:37;3.40;99.90
20479;DHT22;10398;52.490;13.434;2023-02-08T16:00:20;3.30;99.90
20479;DHT22;10398;52.490;13.434;2023-02-08T16:02:53;3.20;99.90
20479;DHT22;10398;52.490;13.434;2023-02-08T16:05:25;3.20;99.90
20479;DHT22;10398;52.490;13.434;2023-02-08T16:07:51;3.20;99.90
20479;DHT22;10398;52.490;13.434;2023-02-08T16:10:39;3.10;99.90
20479;DHT22;10398;52.490;13.434;2023-02-08T16:13:19;3.10;99.90
20479;DHT22;10398;52.490;13.434;2023-02-08T16:15:47;3.20;99.90
20479;DHT22;10398;52.490;13.434;2023-02-08T16:18:40;3.20;99.90
20479;DHT22;10398;52.490;13.434;2023-02-08T16:23:54;3.00;99.90
20479;DHT22;10398;52.490;13.434;2023-02-08T16:26:26;3.00;99.90
20479;DHT22;10398;52.490;13.434;2023-02-08T16:29:04;3.00;99.90
20479;DHT22;10398;52.490;13.434;2023-02-08T16:31:32;2.90;99.90
20479;DHT22;10398;52.490;13.434;2023-02-08T16:34:02;2.70;99.90
20479;DHT22;10398;52.490;13.434;2023-02-08T16:36:40;2.70;99.90
20479;DHT22;10398;52.490;13.434;2023-02-08T16:44:29;2.60;99.90
20479;DHT22;10398;52.490;13.434;2023-02-08T16:46:57;2.50;99.90
20479;DHT22;10398;52.490;13.434;2023-02-08T16:49:23;2.60;99.90
20479;DHT22;10398;52.490;13.434;2023-02-08T16:51:49;2.60;99.90
20479;DHT22;10398;52.490;13.434;2023-02-08T16:54:19;2.60;99.90
20479;DHT22;10398;52.490;13.434;2023-02-08T16:56:47;2.60;99.90
20479;DHT22;10398;52.490;13.434;2023-02-08T16:59:18;2.50;99.90
20479;DHT22;10398;52.490;13.434;2023-02-08T17:01:44;2.50;99.90
20479;DHT22;10398;52.490;13.434;2023-02-08T17:04:12;2.60;99.90
20479;DHT22;10398;52.490;13.434;2023-02-08T17:06:40;2.50;99.90
20479;DHT22;10398;52.490;13.434;2023-02-08T17:09:07;2.60;99.90
20479;DHT22;10398;52.490;13.434;2023-02-08T17:11:35;2.60;99.90
20479;DHT22;10398;52.490;13.434;2023-02-08T17:14:01;2.60;99.90
20479;DHT22;10398;52.490;13.434;2023-02-08T17:16:30;2.70;99.90
20479;DHT22;10398;52.490;13.434;2023-02-08T17:18:57;2.60;99.90
20479;DHT22;10398;52.490;13.434;2023-02-08T17:21:23;2.50;99.90
20479;DHT22;10398;52.490;13.434;2023-02-08T17:23:49;2.60;99.90
20479;DHT22;10398;52.490;13.434;2023-02-08T17:26:23;2.70;99.90
20479;DHT22;10398;52.490;13.434;2023-02-08T17:28:53;2.60;99.90
20479;DHT22;10398;52.490;13.434;2023-02-08T17:31:19;2.50;99.90
20479;DHT22;10398;52.490;13.434;2023-02-08T17:33:45;2.50;99.90
20479;DHT22;10398;52.490;13.434;2023-02-08T17:36:13;2.50;99.90
20479;DHT22;10398;52.490;13.434;2023-02-08T17:38:40;2.70;99.90
20479;DHT22;10398;52.490;13.434;2023-02-08T17:41:08;2.70;99.90
20479;DHT22;10398;52.490;13.434;2023-02-08T17:43:34;2.70;99.90
20479;DHT22;10398;52.490;13.434;2023-02-08T17:46:07;2.50;99.90
20479;DHT22;10398;52.490;13.434;2023-02-08T17:48:33;2.40;99.90
20479;DHT22;10398;52.490;13.434;2023-02-08T17:50:59;2.30;99.90
20479;DHT22;10398;52.490;13.434;2023-02-08T17:53:24;2.30;99.90
20479;DHT22;10398;52.490;13.434;2023-02-08T17:55:50;2.30;99.90
20479;DHT22;10398;52.490;13.434;2023-02-08T17:58:16;2.20;99.90
20479;DHT22;10398;52.490;13.434;2023-02-08T18:00:42;2.10;99.90
20479;DHT22;10398;52.490;13.434;2023-02-08T18:03:08;2.10;99.90